createdAt,value
2023-04-12T00:00:01.181Z,6.23
2023-04-12T00:01:04.339Z,6.22
2023-04-12T00:02:06.906Z,6.18
2023-04-12T00:03:10.628Z,6.14
2023-04-12T00:04:14.734Z,6.11
2023-04-12T00:05:17.019Z,6.08
2023-04-12T00:06:19.225Z,6.04
2023-04-12T00:07:23.628Z,6.02
2023-04-12T00:08:33.878Z,5.99
2023-04-12T00:09:36.637Z,6.00
2023-04-12T00:10:38.640Z,5.94
2023-04-12T00:11:40.607Z,5.93
2023-04-12T00:12:42.559Z,5.90
2023-04-12T00:13:44.575Z,5.90
2023-04-12T00:14:47.222Z,5.91
2023-04-12T00:15:49.877Z,5.91
2023-04-12T00:16:52.071Z,5.90
2023-04-12T00:17:54.218Z,5.89
2023-04-12T00:18:57.611Z,5.92
2023-04-12T00:19:59.635Z,5.94
2023-04-12T00:21:01.549Z,5.97
2023-04-12T00:22:03.527Z,5.97
2023-04-12T00:23:05.473Z,6.01
2023-04-12T00:24:07.839Z,5.97
2023-04-12T00:25:10.417Z,5.91
2023-04-12T00:26:12.446Z,5.87
2023-04-12T00:27:14.439Z,5.80
2023-04-12T00:28:16.715Z,5.75
2023-04-12T00:29:18.632Z,5.70
2023-04-12T00:30:21.279Z,5.67
2023-04-12T00:31:23.579Z,5.67
2023-04-12T00:32:25.661Z,5.63
2023-04-12T00:33:27.687Z,5.59
2023-04-12T00:34:29.793Z,5.57
2023-04-12T00:35:31.819Z,5.53
2023-04-12T00:36:34.089Z,5.50
2023-04-12T00:37:38.972Z,5.45
2023-04-12T00:38:41.120Z,5.42
2023-04-12T00:39:43.033Z,5.41
2023-04-12T00:40:45.415Z,5.39
2023-04-12T00:41:47.426Z,5.39
2023-04-12T00:42:49.517Z,5.40
2023-04-12T00:43:51.630Z,5.41
2023-04-12T00:44:53.609Z,5.45
2023-04-12T00:45:57.944Z,5.51
2023-04-12T00:47:00.571Z,5.56
2023-04-12T00:48:02.810Z,5.54
2023-04-12T00:49:05.589Z,5.52
2023-04-12T00:50:09.834Z,5.53
2023-04-12T00:51:11.910Z,5.54
2023-04-12T00:52:15.931Z,5.55
2023-04-12T00:53:18.631Z,5.56
2023-04-12T00:54:20.760Z,5.48
2023-04-12T00:55:23.411Z,5.48
2023-04-12T00:56:27.942Z,5.44
2023-04-12T00:57:36.774Z,5.43
2023-04-12T00:58:38.809Z,5.39
2023-04-12T00:59:41.162Z,5.40
2023-04-12T01:00:50.524Z,5.38
2023-04-12T01:01:54.666Z,5.36
2023-04-12T01:02:57.203Z,5.33
2023-04-12T01:04:04.926Z,5.31
2023-04-12T01:05:08.282Z,5.31
2023-04-12T01:06:29.870Z,5.29
2023-04-12T01:07:34.634Z,5.25
2023-04-12T01:08:59.967Z,5.22
2023-04-12T01:10:14.299Z,5.16
2023-04-12T01:11:26.895Z,5.11
2023-04-12T01:12:31.758Z,5.07
2023-04-12T01:13:53.045Z,5.06
2023-04-12T01:15:13.701Z,5.03
2023-04-12T01:16:44.596Z,5.03
2023-04-12T01:17:53.141Z,5.01
2023-04-12T01:19:00.133Z,5.00
2023-04-12T01:20:13.587Z,4.97
2023-04-12T01:21:24.542Z,4.94
2023-04-12T01:23:07.737Z,4.95
2023-04-12T01:24:35.710Z,4.96
2023-04-12T01:25:39.584Z,4.97
2023-04-12T01:26:47.020Z,4.99
2023-04-12T01:27:51.168Z,5.00
2023-04-12T01:28:55.005Z,5.01
2023-04-12T01:30:01.452Z,5.01
2023-04-12T01:31:07.512Z,4.98
2023-04-12T01:32:11.070Z,4.95
2023-04-12T01:33:14.589Z,4.94
2023-04-12T01:34:18.060Z,4.91
2023-04-12T01:35:22.818Z,4.89
2023-04-12T01:36:27.775Z,4.85
2023-04-12T01:37:30.811Z,4.80
2023-04-12T01:38:33.569Z,4.75
2023-04-12T01:39:36.296Z,4.73
2023-04-12T01:40:40.930Z,4.71
2023-04-12T01:41:45.775Z,4.67
2023-04-12T01:42:47.843Z,4.65
2023-04-12T01:43:49.846Z,4.63
2023-04-12T01:44:51.794Z,4.61
2023-04-12T01:45:54.338Z,4.61
2023-04-12T01:46:57.365Z,4.62
2023-04-12T01:48:00.328Z,4.64
2023-04-12T01:49:03.547Z,4.66
2023-04-12T01:50:46.122Z,4.67
2023-04-12T01:52:07.752Z,4.67
2023-04-12T01:53:31.246Z,4.72
2023-04-12T01:54:38.885Z,4.74
2023-04-12T01:55:46.054Z,4.74
2023-04-12T01:56:55.049Z,4.72
2023-04-12T01:57:58.140Z,4.71
2023-04-12T01:59:02.504Z,4.69
2023-04-12T02:00:07.924Z,4.66
2023-04-12T02:01:12.759Z,4.63
2023-04-12T02:02:15.370Z,4.60
2023-04-12T02:03:20.800Z,4.61
2023-04-12T02:04:26.329Z,4.61
2023-04-12T02:05:28.346Z,4.61
2023-04-12T02:06:32.078Z,4.60
2023-04-12T02:07:35.195Z,4.58
2023-04-12T02:08:38.139Z,4.57
2023-04-12T02:09:40.261Z,4.55
2023-04-12T02:10:42.650Z,4.54
2023-04-12T02:11:51.410Z,4.53
2023-04-12T02:12:54.513Z,4.51
2023-04-12T02:13:56.749Z,4.48
2023-04-12T02:15:00.422Z,4.48
2023-04-12T02:16:02.697Z,4.47
2023-04-12T02:17:05.682Z,4.44
2023-04-12T02:18:07.804Z,4.42
2023-04-12T02:19:10.780Z,4.40
2023-04-12T02:20:12.996Z,4.40
2023-04-12T02:21:15.173Z,4.40
2023-04-12T02:22:17.440Z,4.42
2023-04-12T02:23:19.446Z,4.53
2023-04-12T02:24:21.804Z,4.72
2023-04-12T02:25:23.871Z,5.01
2023-04-12T02:26:25.977Z,5.26
2023-04-12T02:27:27.872Z,5.49
2023-04-12T02:28:30.012Z,5.71
2023-04-12T02:29:32.030Z,5.89
2023-04-12T02:30:34.042Z,6.08
2023-04-12T02:31:37.004Z,6.25
2023-04-12T02:32:45.720Z,6.47
2023-04-12T02:33:47.736Z,6.66
2023-04-12T02:34:51.573Z,6.86
2023-04-12T02:35:53.564Z,7.05
2023-04-12T02:36:55.698Z,7.21
2023-04-12T02:37:58.045Z,7.32
2023-04-12T02:38:59.981Z,7.46
2023-04-12T02:40:02.671Z,7.61
2023-04-12T02:41:05.868Z,7.71
2023-04-12T02:42:07.784Z,7.85
2023-04-12T02:43:10.467Z,7.95
2023-04-12T02:44:12.380Z,8.04
2023-04-12T02:45:14.416Z,8.17
2023-04-12T02:46:19.694Z,8.29
2023-04-12T02:47:21.972Z,8.41
2023-04-12T02:48:24.022Z,8.51
2023-04-12T02:49:26.068Z,8.60
2023-04-12T02:50:29.584Z,8.73
2023-04-12T02:51:31.765Z,8.93
2023-04-12T02:52:33.757Z,9.10
2023-04-12T02:53:36.056Z,9.27
2023-04-12T02:54:38.057Z,9.34
2023-04-12T02:55:40.612Z,9.32
2023-04-12T02:56:44.090Z,9.29
2023-04-12T02:57:46.146Z,9.32
2023-04-12T02:58:48.075Z,9.33
2023-04-12T02:59:55.827Z,9.35
2023-04-12T03:01:00.367Z,9.37
2023-04-12T03:02:02.730Z,9.43
2023-04-12T03:03:04.796Z,9.48
2023-04-12T03:04:07.885Z,9.48
2023-04-12T03:05:11.014Z,9.53
2023-04-12T03:06:13.107Z,9.60
2023-04-12T03:07:15.177Z,9.71
2023-04-12T03:08:17.154Z,9.90
2023-04-12T03:09:19.728Z,10.12
2023-04-12T03:10:21.704Z,10.22
2023-04-12T03:11:23.780Z,10.34
2023-04-12T03:12:25.930Z,10.45
2023-04-12T03:13:27.884Z,10.44
2023-04-12T03:14:29.830Z,10.42
2023-04-12T03:15:32.054Z,10.42
2023-04-12T03:16:35.750Z,10.48
2023-04-12T03:17:37.750Z,10.54
2023-04-12T03:18:39.680Z,10.63
2023-04-12T03:19:41.845Z,10.64
2023-04-12T03:20:46.126Z,10.68
2023-04-12T03:21:49.552Z,10.76
2023-04-12T03:22:51.972Z,10.91
2023-04-12T03:23:54.217Z,11.04
2023-04-12T03:24:56.374Z,11.05
2023-04-12T03:25:58.274Z,11.13
2023-04-12T03:27:02.274Z,11.23
2023-04-12T03:28:04.455Z,11.35
2023-04-12T03:29:10.087Z,11.48
2023-04-12T03:30:13.604Z,11.62
2023-04-12T03:31:15.794Z,11.73
2023-04-12T03:32:17.763Z,11.82
2023-04-12T03:33:19.670Z,11.97
2023-04-12T03:34:22.087Z,12.07
2023-04-12T03:35:24.071Z,12.14
2023-04-12T03:36:27.454Z,12.19
2023-04-12T03:37:29.707Z,12.28
2023-04-12T03:38:32.277Z,12.31
2023-04-12T03:39:34.245Z,12.37
2023-04-12T03:40:36.533Z,12.44
2023-04-12T03:41:38.580Z,12.48
2023-04-12T03:42:40.814Z,12.56
2023-04-12T03:43:43.086Z,12.70
2023-04-12T03:44:45.237Z,12.78
2023-04-12T03:45:47.691Z,12.85
2023-04-12T03:46:50.060Z,12.90
2023-04-12T03:47:52.284Z,12.97
2023-04-12T03:48:54.716Z,13.05
2023-04-12T03:50:10.394Z,12.99
2023-04-12T03:51:13.955Z,13.01
2023-04-12T03:52:16.323Z,12.96
2023-04-12T03:53:18.338Z,12.93
2023-04-12T03:54:20.962Z,13.01
2023-04-12T03:55:23.082Z,12.98
2023-04-12T03:56:25.535Z,13.09
2023-04-12T03:57:27.650Z,13.16
2023-04-12T03:58:29.744Z,13.23
2023-04-12T03:59:33.049Z,13.33
2023-04-12T04:00:35.166Z,13.35
2023-04-12T04:01:37.733Z,13.25
2023-04-12T04:02:39.880Z,13.36
2023-04-12T04:03:41.974Z,13.34
2023-04-12T04:04:44.358Z,13.24
2023-04-12T04:05:46.324Z,13.28
2023-04-12T04:06:49.016Z,13.31
2023-04-12T04:07:51.406Z,13.36
2023-04-12T04:08:53.485Z,13.39
2023-04-12T04:09:56.234Z,13.39
2023-04-12T04:10:58.494Z,13.36
2023-04-12T04:12:01.999Z,13.37
2023-04-12T04:13:04.129Z,13.51
2023-04-12T04:14:06.383Z,13.62
2023-04-12T04:15:08.983Z,13.73
2023-04-12T04:16:11.221Z,13.78
2023-04-12T04:17:13.374Z,13.84
2023-04-12T04:18:15.661Z,13.91
2023-04-12T04:19:17.844Z,13.91
2023-04-12T04:20:20.520Z,13.95
2023-04-12T04:21:22.877Z,14.02
2023-04-12T04:22:24.937Z,14.04
2023-04-12T04:23:29.375Z,14.07
2023-04-12T04:24:31.572Z,14.03
2023-04-12T04:25:33.814Z,14.09
2023-04-12T04:26:38.608Z,14.09
2023-04-12T04:27:45.113Z,14.14
2023-04-12T04:28:47.164Z,14.12
2023-04-12T04:29:51.253Z,14.11
2023-04-12T04:30:55.922Z,14.14
2023-04-12T04:31:58.296Z,14.12
2023-04-12T04:33:01.330Z,14.13
2023-04-12T04:34:06.891Z,14.19
2023-04-12T04:35:09.077Z,14.08
2023-04-12T04:36:11.453Z,14.08
2023-04-12T04:37:13.580Z,14.10
2023-04-12T04:38:15.967Z,14.30
2023-04-12T04:39:18.096Z,14.48
2023-04-12T04:40:21.732Z,14.65
2023-04-12T04:41:24.502Z,14.83
2023-04-12T04:42:27.018Z,14.92
2023-04-12T04:43:34.554Z,14.98
2023-04-12T04:44:37.496Z,15.00
2023-04-12T04:46:43.674Z,14.93
2023-04-12T04:47:45.651Z,14.91
2023-04-12T04:48:52.215Z,14.87
2023-04-12T04:49:54.080Z,14.79
2023-04-12T04:50:56.038Z,14.79
2023-04-12T04:51:58.041Z,14.76
2023-04-12T04:52:59.965Z,14.89
2023-04-12T04:54:02.626Z,14.80
2023-04-12T04:55:06.996Z,14.65
2023-04-12T04:56:11.690Z,14.59
2023-04-12T04:57:14.938Z,14.59
2023-04-12T04:58:17.582Z,14.67
2023-04-12T04:59:20.260Z,14.81
2023-04-12T05:00:22.319Z,14.91
2023-04-12T05:01:28.788Z,14.87
2023-04-12T05:02:32.034Z,14.79
2023-04-12T05:03:34.440Z,14.78
2023-04-12T05:04:37.246Z,14.86
2023-04-12T05:05:39.279Z,14.93
2023-04-12T05:06:41.280Z,15.06
2023-04-12T05:07:46.158Z,15.21
2023-04-12T05:08:48.161Z,15.28
2023-04-12T05:09:50.205Z,15.34
2023-04-12T05:10:53.271Z,15.40
2023-04-12T05:11:55.242Z,15.46
2023-04-12T05:12:57.254Z,15.45
2023-04-12T05:13:59.367Z,15.50
2023-04-12T05:16:08.364Z,15.46
2023-04-12T05:17:10.226Z,15.81
2023-04-12T05:18:12.142Z,15.56
2023-04-12T05:19:14.286Z,15.56
2023-04-12T05:20:16.924Z,15.54
2023-04-12T05:21:19.104Z,15.56
2023-04-12T05:22:21.840Z,15.59
2023-04-12T05:23:23.784Z,15.53
2023-04-12T05:24:25.764Z,15.51
2023-04-12T05:25:27.709Z,15.51
2023-04-12T05:26:29.798Z,15.46
2023-04-12T05:27:32.302Z,15.56
2023-04-12T05:28:34.493Z,15.58
2023-04-12T05:29:36.486Z,15.66
2023-04-12T05:30:40.277Z,15.74
2023-04-12T05:31:42.072Z,16.18
2023-04-12T05:32:44.156Z,16.01
2023-04-12T05:33:46.212Z,15.98
2023-04-12T05:34:48.218Z,15.99
2023-04-12T05:35:50.274Z,16.02
2023-04-12T05:36:52.251Z,16.05
2023-04-12T05:37:54.216Z,16.08
2023-04-12T05:38:56.265Z,16.09
2023-04-12T05:39:58.579Z,16.10
2023-04-12T05:41:04.403Z,16.16
2023-04-12T05:42:07.041Z,16.21
2023-04-12T05:43:12.763Z,16.25
2023-04-12T05:44:14.942Z,16.35
2023-04-12T05:45:16.939Z,16.36
2023-04-12T05:46:18.971Z,16.35
2023-04-12T05:47:21.179Z,16.24
2023-04-12T05:48:23.186Z,16.19
2023-04-12T05:49:28.791Z,16.13
2023-04-12T05:50:30.782Z,16.13
2023-04-12T05:51:40.880Z,16.10
2023-04-12T05:52:43.817Z,16.12
2023-04-12T05:53:45.842Z,16.10
2023-04-12T05:54:47.789Z,16.12
2023-04-12T05:55:49.733Z,16.14
2023-04-12T05:56:54.580Z,16.15
2023-04-12T05:57:56.523Z,16.13
2023-04-12T05:58:58.756Z,16.03
2023-04-12T06:00:00.829Z,16.01
2023-04-12T06:01:03.135Z,16.00
2023-04-12T06:02:05.228Z,16.04
2023-04-12T06:03:08.329Z,16.02
2023-04-12T06:04:10.662Z,16.09
2023-04-12T06:05:13.414Z,16.10
2023-04-12T06:06:15.778Z,16.18
2023-04-12T06:07:19.498Z,16.23
2023-04-12T06:08:21.402Z,16.64
2023-04-12T06:09:23.317Z,16.46
2023-04-12T06:10:25.375Z,16.36
2023-04-12T06:11:27.724Z,16.22
2023-04-12T06:12:29.794Z,16.17
2023-04-12T06:13:31.849Z,16.15
2023-04-12T06:14:33.755Z,16.15
2023-04-12T06:15:37.071Z,16.13
2023-04-12T06:16:41.272Z,16.14
2023-04-12T06:17:44.515Z,16.17
2023-04-12T06:18:46.653Z,16.23
2023-04-12T06:19:48.570Z,16.14
2023-04-12T06:20:51.141Z,16.14
2023-04-12T06:21:53.275Z,16.13
2023-04-12T06:22:55.559Z,16.15
2023-04-12T06:23:57.605Z,16.13
2023-04-12T06:24:59.667Z,16.11
2023-04-12T06:26:01.679Z,16.01
2023-04-12T06:27:03.980Z,15.81
2023-04-12T06:28:06.298Z,15.66
2023-04-12T06:29:08.438Z,15.51
2023-04-12T06:30:11.051Z,15.39
2023-04-12T06:31:13.115Z,15.32
2023-04-12T06:32:15.532Z,15.34
2023-04-12T06:33:17.927Z,15.30
2023-04-12T06:34:19.891Z,15.23
2023-04-12T06:35:22.782Z,15.17
2023-04-12T06:36:24.799Z,15.10
2023-04-12T06:37:26.956Z,15.04
2023-04-12T06:38:29.261Z,14.98
2023-04-12T06:39:31.302Z,14.95
2023-04-12T06:40:33.783Z,14.92
2023-04-12T06:41:35.972Z,14.89
2023-04-12T06:42:38.326Z,14.87
2023-04-12T06:43:40.425Z,14.87
2023-04-12T06:44:42.601Z,14.92
2023-04-12T06:45:44.511Z,14.94
2023-04-12T06:46:46.778Z,14.93
2023-04-12T06:47:48.867Z,14.87
2023-04-12T06:48:50.874Z,14.86
2023-04-12T06:49:56.184Z,14.88
2023-04-12T06:50:58.544Z,14.88
2023-04-12T06:52:00.602Z,14.86
2023-04-12T06:53:02.528Z,14.83
2023-04-12T06:54:04.556Z,14.83
2023-04-12T06:55:07.493Z,14.81
2023-04-12T06:56:09.588Z,14.75
2023-04-12T06:57:12.195Z,14.69
2023-04-12T06:58:14.351Z,14.66
2023-04-12T06:59:16.260Z,14.65
2023-04-12T07:00:18.389Z,14.65
2023-04-12T07:01:20.574Z,14.70
2023-04-12T07:02:22.796Z,14.66
2023-04-12T07:03:24.966Z,14.63
2023-04-12T07:04:26.893Z,14.64
2023-04-12T07:05:28.928Z,14.67
2023-04-12T07:06:49.573Z,14.72
2023-04-12T07:07:51.801Z,14.84
2023-04-12T07:08:54.779Z,14.86
2023-04-12T07:10:15.634Z,14.84
2023-04-12T07:11:21.362Z,14.83
2023-04-12T07:12:24.329Z,14.88
2023-04-12T07:13:26.466Z,14.93
2023-04-12T07:14:29.090Z,15.01
2023-04-12T07:15:31.105Z,15.12
2023-04-12T07:16:33.269Z,15.15
2023-04-12T07:17:35.619Z,15.13
2023-04-12T07:18:39.400Z,15.16
2023-04-12T07:19:42.288Z,15.16
2023-04-12T07:20:46.361Z,15.09
2023-04-12T07:21:48.688Z,15.04
2023-04-12T07:22:50.919Z,15.03
2023-04-12T07:23:53.633Z,15.03
2023-04-12T07:24:55.870Z,15.12
2023-04-12T07:26:02.210Z,15.15
2023-04-12T07:27:04.362Z,15.14
2023-04-12T07:28:08.753Z,15.15
2023-04-12T07:29:11.588Z,15.22
2023-04-12T07:30:13.973Z,15.28
2023-04-12T07:31:16.390Z,15.29
2023-04-12T07:32:18.573Z,15.25
2023-04-12T07:33:21.054Z,15.23
2023-04-12T07:34:24.434Z,15.26
2023-04-12T07:35:26.911Z,15.35
2023-04-12T07:36:29.042Z,15.44
2023-04-12T07:37:31.001Z,15.52
2023-04-12T07:38:33.206Z,15.59
2023-04-12T07:39:35.257Z,15.57
2023-04-12T07:40:37.415Z,15.59
2023-04-12T07:41:39.815Z,15.51
2023-04-12T07:42:42.106Z,15.43
2023-04-12T07:43:44.352Z,15.39
2023-04-12T07:44:46.919Z,15.41
2023-04-12T07:45:49.652Z,15.44
2023-04-12T07:46:51.824Z,15.46
2023-04-12T07:47:53.790Z,15.51
2023-04-12T07:48:56.141Z,15.56
2023-04-12T07:49:59.172Z,15.58
2023-04-12T07:51:01.252Z,15.60
2023-04-12T07:52:03.226Z,15.64
2023-04-12T07:53:20.117Z,15.66
2023-04-12T07:54:22.389Z,15.64
2023-04-12T07:55:25.447Z,15.66
2023-04-12T07:56:27.376Z,15.70
2023-04-12T07:57:29.342Z,15.71
2023-04-12T07:58:31.574Z,15.73
2023-04-12T07:59:34.362Z,15.70
2023-04-12T08:00:55.007Z,15.65
2023-04-12T08:01:57.256Z,15.61
2023-04-12T08:02:59.454Z,15.56
2023-04-12T08:04:20.276Z,15.55
2023-04-12T08:05:22.406Z,15.62
2023-04-12T08:06:25.100Z,15.65
2023-04-12T08:07:46.615Z,15.74
2023-04-12T08:08:48.644Z,15.86
2023-04-12T08:10:09.013Z,15.89
2023-04-12T08:11:11.938Z,15.94
2023-04-12T08:12:14.095Z,15.83
2023-04-12T08:13:16.341Z,15.77
2023-04-12T08:14:18.696Z,15.65
2023-04-12T08:15:21.339Z,15.58
2023-04-12T08:16:23.827Z,15.53
2023-04-12T08:17:28.767Z,15.53
2023-04-12T08:18:30.913Z,15.60
2023-04-12T08:19:32.957Z,15.62
2023-04-12T08:20:35.232Z,15.65
2023-04-12T08:21:37.703Z,15.73
2023-04-12T08:22:40.372Z,15.83
2023-04-12T08:23:42.376Z,15.98
2023-04-12T08:24:44.267Z,16.15
2023-04-12T08:25:46.481Z,16.27
2023-04-12T08:26:48.755Z,16.29
2023-04-12T08:27:51.873Z,16.38
2023-04-12T08:28:53.872Z,16.44
2023-04-12T08:29:56.231Z,16.49
2023-04-12T08:30:59.569Z,16.42
2023-04-12T08:32:02.070Z,16.40
2023-04-12T08:33:04.577Z,16.38
2023-04-12T08:34:07.447Z,16.29
2023-04-12T08:35:09.978Z,16.16
2023-04-12T08:36:12.141Z,16.09
2023-04-12T08:37:14.380Z,16.10
2023-04-12T08:38:16.653Z,16.05
2023-04-12T08:39:18.921Z,15.98
2023-04-12T08:40:21.976Z,15.97
2023-04-12T08:41:24.370Z,15.87
2023-04-12T08:42:26.679Z,15.90
2023-04-12T08:43:30.136Z,15.87
2023-04-12T08:44:37.261Z,15.93
2023-04-12T08:45:39.328Z,16.00
2023-04-12T08:46:42.536Z,16.07
2023-04-12T08:47:45.812Z,15.99
2023-04-12T08:48:49.890Z,15.97
2023-04-12T08:49:52.093Z,15.92
2023-04-12T08:50:57.842Z,15.91
2023-04-12T08:52:03.219Z,15.93
2023-04-12T08:53:05.196Z,16.03
2023-04-12T08:54:07.378Z,16.10
2023-04-12T08:55:11.441Z,16.22
2023-04-12T08:56:15.283Z,16.25
2023-04-12T08:57:18.398Z,16.40
2023-04-12T08:58:21.425Z,16.36
2023-04-12T08:59:24.178Z,16.39
2023-04-12T09:00:26.507Z,16.35
2023-04-12T09:01:28.931Z,16.38
2023-04-12T09:02:31.660Z,16.48
2023-04-12T09:03:34.736Z,16.59
2023-04-12T09:04:49.013Z,16.60
2023-04-12T09:05:51.281Z,16.46
2023-04-12T09:06:53.955Z,16.46
2023-04-12T09:07:56.134Z,16.30
2023-04-12T09:08:58.356Z,16.24
2023-04-12T09:10:00.633Z,16.24
2023-04-12T09:11:03.493Z,16.25
2023-04-12T09:12:09.356Z,16.32
2023-04-12T09:13:11.784Z,16.40
2023-04-12T09:14:24.617Z,16.48
2023-04-12T09:15:27.110Z,16.56
2023-04-12T09:16:42.939Z,16.57
2023-04-12T09:17:46.641Z,16.47
2023-04-12T09:18:51.199Z,16.46
2023-04-12T09:19:55.976Z,16.44
2023-04-12T09:21:09.269Z,16.39
2023-04-12T09:22:11.265Z,16.24
2023-04-12T09:23:26.831Z,16.29
2023-04-12T09:24:29.877Z,16.29
2023-04-12T09:25:46.013Z,16.24
2023-04-12T09:26:48.963Z,16.25
2023-04-12T09:27:54.412Z,16.29
2023-04-12T09:28:57.172Z,16.37
2023-04-12T09:30:10.287Z,16.32
2023-04-12T09:31:18.038Z,16.32
2023-04-12T09:32:27.624Z,16.27
2023-04-12T09:33:39.174Z,16.32
2023-04-12T09:34:56.331Z,16.34
2023-04-12T09:36:03.363Z,16.30
2023-04-12T09:37:18.588Z,16.36
2023-04-12T09:38:20.870Z,16.30
2023-04-12T09:39:35.680Z,16.31
2023-04-12T09:40:38.480Z,16.35
2023-04-12T09:41:40.834Z,16.42
2023-04-12T09:43:00.533Z,16.58
2023-04-12T09:44:02.931Z,16.57
2023-04-12T09:45:25.730Z,16.59
2023-04-12T09:46:29.219Z,16.64
2023-04-12T09:47:42.592Z,16.69
2023-04-12T09:48:53.266Z,16.79
2023-04-12T09:49:56.273Z,16.75
2023-04-12T09:51:02.444Z,16.75
2023-04-12T09:52:05.565Z,16.78
2023-04-12T09:53:18.241Z,16.88
2023-04-12T09:54:21.180Z,16.86
2023-04-12T09:55:28.502Z,16.83
2023-04-12T09:56:33.642Z,16.76
2023-04-12T09:57:40.707Z,16.76
2023-04-12T09:58:45.215Z,16.73
2023-04-12T09:59:51.729Z,16.66
2023-04-12T10:00:58.050Z,16.64
2023-04-12T10:02:00.746Z,16.73
2023-04-12T10:03:03.096Z,16.83
2023-04-12T10:04:10.689Z,16.93
2023-04-12T10:05:16.877Z,17.08
2023-04-12T10:06:19.241Z,17.19
2023-04-12T10:07:21.975Z,17.23
2023-04-12T10:08:25.190Z,17.24
2023-04-12T10:09:28.522Z,17.30
2023-04-12T10:10:31.020Z,17.26
2023-04-12T10:11:35.290Z,17.23
2023-04-12T10:12:37.611Z,17.25
2023-04-12T10:13:41.032Z,17.24
2023-04-12T10:14:45.128Z,17.26
2023-04-12T10:15:51.799Z,17.21
2023-04-12T10:16:57.723Z,17.26
2023-04-12T10:18:00.511Z,17.24
2023-04-12T10:19:04.422Z,17.19
2023-04-12T10:20:06.955Z,17.32
2023-04-12T10:21:10.326Z,17.26
2023-04-12T10:22:14.126Z,17.23
2023-04-12T10:23:16.911Z,17.20
2023-04-12T10:24:22.403Z,17.24
2023-04-12T10:25:27.820Z,17.24
2023-04-12T10:26:30.977Z,17.23
2023-04-12T10:27:34.977Z,17.26
2023-04-12T10:28:37.821Z,17.26
2023-04-12T10:29:42.672Z,17.24
2023-04-12T10:30:46.069Z,17.28
2023-04-12T10:31:48.929Z,17.27
2023-04-12T10:33:14.582Z,17.42
2023-04-12T10:34:17.718Z,17.47
2023-04-12T10:35:20.784Z,17.54
2023-04-12T10:36:56.974Z,17.65
2023-04-12T10:38:04.140Z,17.56
2023-04-12T10:39:11.345Z,17.63
2023-04-12T10:40:20.768Z,17.71
2023-04-12T10:41:23.999Z,17.73
2023-04-12T10:42:28.834Z,17.64
2023-04-12T10:43:31.243Z,17.61
2023-04-12T10:44:34.162Z,17.49
2023-04-12T10:45:37.903Z,17.37
2023-04-12T10:46:46.575Z,17.33
2023-04-12T10:47:49.749Z,17.36
2023-04-12T10:48:53.837Z,17.36
2023-04-12T10:50:14.458Z,17.50
2023-04-12T10:51:29.778Z,17.53
2023-04-12T10:52:32.109Z,17.49
2023-04-12T10:53:34.268Z,17.53
2023-04-12T10:54:37.971Z,17.44
2023-04-12T10:55:41.452Z,17.46
2023-04-12T10:56:45.253Z,17.48
2023-04-12T10:57:49.711Z,17.49
2023-04-12T10:58:51.884Z,17.48
2023-04-12T10:59:57.695Z,17.50
2023-04-12T11:01:00.778Z,17.55
2023-04-12T11:02:12.256Z,17.62
2023-04-12T11:03:15.851Z,17.68
2023-04-12T11:04:21.968Z,17.75
2023-04-12T11:05:25.431Z,17.73
2023-04-12T11:06:55.458Z,17.77
2023-04-12T11:08:01.077Z,17.64
2023-04-12T11:09:03.370Z,17.59
2023-04-12T11:10:14.847Z,17.67
2023-04-12T11:11:24.458Z,17.63
2023-04-12T11:12:31.232Z,17.60
2023-04-12T11:13:40.137Z,17.58
2023-04-12T11:14:51.466Z,17.68
2023-04-12T11:15:57.119Z,17.65
2023-04-12T11:17:15.157Z,17.66
2023-04-12T11:18:18.628Z,17.59
2023-04-12T11:19:21.534Z,17.62
2023-04-12T11:20:26.208Z,17.69
2023-04-12T11:21:29.369Z,17.76
2023-04-12T11:22:33.943Z,17.75
2023-04-12T11:23:38.292Z,17.70
2023-04-12T11:24:44.629Z,17.73
2023-04-12T11:25:53.799Z,17.81
2023-04-12T11:26:58.023Z,17.87
2023-04-12T11:28:01.847Z,17.92
2023-04-12T11:29:09.169Z,17.98
2023-04-12T11:30:12.956Z,17.99
2023-04-12T11:31:16.000Z,17.96
2023-04-12T11:32:18.722Z,18.02
2023-04-12T11:33:40.861Z,18.14
2023-04-12T11:34:45.601Z,18.11
2023-04-12T11:35:48.145Z,18.14
2023-04-12T11:36:54.616Z,18.08
2023-04-12T11:37:59.316Z,17.94
2023-04-12T11:39:01.501Z,17.87
2023-04-12T11:40:08.108Z,17.73
2023-04-12T11:41:11.238Z,17.60
2023-04-12T11:42:18.299Z,17.54
2023-04-12T11:43:21.636Z,17.51
2023-04-12T11:44:24.984Z,17.48
2023-04-12T11:45:28.246Z,17.52
2023-04-12T11:46:34.520Z,17.49
2023-04-12T11:47:42.639Z,17.43
2023-04-12T11:48:47.291Z,17.45
2023-04-12T11:49:59.652Z,17.42
2023-04-12T11:51:11.128Z,17.44
2023-04-12T11:52:15.524Z,17.41
2023-04-12T11:53:20.018Z,17.52
2023-04-12T11:54:30.262Z,17.48
2023-04-12T11:55:32.521Z,17.41
2023-04-12T11:56:34.683Z,17.31
2023-04-12T11:57:37.467Z,17.30
2023-04-12T11:58:39.673Z,17.23
2023-04-12T11:59:44.457Z,17.24
2023-04-12T12:00:47.402Z,17.25
2023-04-12T12:01:52.848Z,17.27
2023-04-12T12:03:06.893Z,17.27
2023-04-12T12:04:10.571Z,17.33
2023-04-12T12:05:13.052Z,17.38
2023-04-12T12:06:16.670Z,17.43
2023-04-12T12:07:21.986Z,17.50
2023-04-12T12:08:24.949Z,17.52
2023-04-12T12:09:27.233Z,17.52
2023-04-12T12:10:43.637Z,17.52
2023-04-12T12:11:52.801Z,17.49
2023-04-12T12:12:58.904Z,17.51
2023-04-12T12:14:01.248Z,17.47
2023-04-12T12:15:03.768Z,17.44
2023-04-12T12:16:09.170Z,17.47
2023-04-12T12:17:14.010Z,17.49
2023-04-12T12:18:16.759Z,17.49
2023-04-12T12:19:37.408Z,17.54
2023-04-12T12:20:49.748Z,17.51
2023-04-12T12:21:52.424Z,17.54
2023-04-12T12:22:54.677Z,17.52
2023-04-12T12:23:58.410Z,17.54
2023-04-12T12:25:02.516Z,17.39
2023-04-12T12:26:19.081Z,17.35
2023-04-12T12:27:31.709Z,17.42
2023-04-12T12:28:39.367Z,17.38
2023-04-12T12:29:42.444Z,17.28
2023-04-12T12:30:45.393Z,17.23
2023-04-12T12:31:50.322Z,17.18
2023-04-12T12:32:55.348Z,17.20
2023-04-12T12:34:00.515Z,17.21
2023-04-12T12:35:08.975Z,17.22
2023-04-12T12:36:11.484Z,17.29
2023-04-12T12:37:14.587Z,17.38
2023-04-12T12:38:16.679Z,17.43
2023-04-12T12:39:18.615Z,17.46
2023-04-12T12:40:32.263Z,17.48
2023-04-12T12:41:35.759Z,17.45
2023-04-12T12:42:44.849Z,17.40
2023-04-12T12:43:48.640Z,17.38
2023-04-12T12:44:51.575Z,17.26
2023-04-12T12:45:53.818Z,17.24
2023-04-12T12:47:06.587Z,17.21
2023-04-12T12:48:16.079Z,17.23
2023-04-12T12:49:19.952Z,17.22
2023-04-12T12:50:28.027Z,17.20
2023-04-12T12:51:32.394Z,17.22
2023-04-12T12:52:34.782Z,17.24
2023-04-12T12:53:37.641Z,17.29
2023-04-12T12:54:41.496Z,17.24
2023-04-12T12:55:43.933Z,17.19
2023-04-12T12:56:46.371Z,17.15
2023-04-12T12:58:05.456Z,17.13
2023-04-12T12:59:09.180Z,17.13
2023-04-12T13:00:14.117Z,17.11
2023-04-12T13:01:17.606Z,17.11
2023-04-12T13:02:20.134Z,17.13
2023-04-12T13:03:22.414Z,17.10
2023-04-12T13:04:25.622Z,17.09
2023-04-12T13:05:28.406Z,17.06
2023-04-12T13:06:30.659Z,17.07
2023-04-12T13:07:32.838Z,17.10
2023-04-12T13:08:36.798Z,17.13
2023-04-12T13:09:39.591Z,17.19
2023-04-12T13:10:41.646Z,17.19
2023-04-12T13:11:44.283Z,17.19
2023-04-12T13:12:46.359Z,17.15
2023-04-12T13:13:49.301Z,17.15
2023-04-12T13:14:57.939Z,17.15
2023-04-12T13:16:06.299Z,17.21
2023-04-12T13:17:09.172Z,17.12
2023-04-12T13:18:12.878Z,17.03
2023-04-12T13:19:17.085Z,17.01
2023-04-12T13:20:19.247Z,16.96
2023-04-12T13:21:22.055Z,16.95
2023-04-12T13:22:26.062Z,16.97
2023-04-12T13:23:28.125Z,17.09
2023-04-12T13:24:31.228Z,17.05
2023-04-12T13:25:33.450Z,17.03
2023-04-12T13:26:36.533Z,17.02
2023-04-12T13:27:39.521Z,17.04
2023-04-12T13:28:41.645Z,17.05
2023-04-12T13:29:43.987Z,17.04
2023-04-12T13:30:49.625Z,17.06
2023-04-12T13:31:53.052Z,17.07
2023-04-12T13:32:56.321Z,17.00
2023-04-12T13:33:59.869Z,16.97
2023-04-12T13:35:02.936Z,16.92
2023-04-12T13:36:06.941Z,16.91
2023-04-12T13:37:12.380Z,16.94
2023-04-12T13:38:15.522Z,16.96
2023-04-12T13:39:18.742Z,17.00
2023-04-12T13:40:21.189Z,17.01
2023-04-12T13:41:23.554Z,17.00
2023-04-12T13:42:25.731Z,16.97
2023-04-12T13:43:28.722Z,16.96
2023-04-12T13:44:31.775Z,16.95
2023-04-12T13:45:34.352Z,16.92
2023-04-12T13:46:37.796Z,16.88
2023-04-12T13:47:40.038Z,16.88
2023-04-12T13:48:42.164Z,16.83
2023-04-12T13:49:44.494Z,16.82
2023-04-12T13:50:47.305Z,16.83
2023-04-12T13:51:52.086Z,16.83
2023-04-12T13:52:55.179Z,16.82
2023-04-12T13:53:58.282Z,16.78
2023-04-12T13:55:00.618Z,16.77
2023-04-12T13:56:03.650Z,16.75
2023-04-12T13:57:07.142Z,16.77